Deva — A8OK3 — position and weather

sailwx.info

Track history (hours):
 
Tides and Currents Weather Stations Pressure Air Temp Water Temp Dewpoint Dewpoint Depression Visibility Wind Speed Wind Dir Waves Ship Positions

Deva

Last reported at 2015-Jul-31 12:19 UTC. Time now 2015-Aug-01 03:29 UTC.
Position N 36°38' E 122°31'.

Length 259 m; draft 9.3 m.

Type: Ship (hazmat cat A). MMSI: 636013644.

Date/timePositionNaut miles runAvg speedWind from/ knotsBaromVisibWave heightAir tempDewpointWater temp
2015-Jul-31 12:19N 36°38' E 122°31'911.4
2015-Jul-31 11:32N 36°43' E 122°40'1111.2
2015-Jul-31 10:33N 36°48' E 122°52'1110.6
2015-Jul-31 09:31N 36°58' E 122°58'1211.3
2015-Jul-31 08:30N 37°09' E 122°58'1311.0
2015-Jul-31 07:21N 37°22' E 122°59'2411.5
2015-Jul-31 05:15N 37°43' E 122°44'6312.4
2015-Jul-31 00:11N 38°38' E 122°06'1211.9
2015-Jul-30 23:11N 38°48' E 121°58'710.8
2015-Jul-30 22:33N 38°55' E 121°56'3 0.2
2015-Jul-30 10:26N 38°58' E 121°56'7 7.7
2015-Jul-30 09:33N 38°51' E 121°55'2019.7
2015-Jul-30 08:33N 38°34' E 121°43'2120.5
2015-Jul-30 07:33N 38°30' E 121°18'15514.1
2015-Jul-29 20:32N 38°56' E 118°02'1211.9
2015-Jul-29 19:33N 38°58' E 117°47'1 0.8
2015-Jul-29 18:33N 38°59' E 117°46'0 0.0
2015-Jul-29 17:33N 38°59' E 117°46'0 0.0
2015-Jul-29 16:33N 38°59' E 117°46'0 0.0
2015-Jul-29 15:26N 38°59' E 117°46'0 0.0
2015-Jul-29 14:20N 38°59' E 117°46'0 0.0
2015-Jul-29 13:14N 38°59' E 117°46'0 0.0
2015-Jul-29 12:32N 38°59' E 117°46'0 0.0
2015-Jul-29 11:26N 38°59' E 117°46'0 0.0
2015-Jul-29 10:32N 38°59' E 117°46'0 0.0
2015-Jul-29 09:26N 38°59' E 117°46'0 0.0
2015-Jul-29 08:32N 38°59' E 117°46'0 0.0
2015-Jul-29 07:20N 38°59' E 117°46'16310.1
2015-Jul-28 15:16N 38°29' E 121°12'2111.8
2015-Jul-28 13:31N 38°19' E 121°35'9612.0
2015-Jul-28 05:31N 37°13' E 123°03'21712.8
2015-Jul-27 12:31N 33°36' E 123°06'6913.3
2015-Jul-27 07:21N 32°27' E 123°03'1112.6
2015-Jul-27 06:29N 32°16' E 123°02'1111.6
2015-Jul-27 05:33N 32°05' E 123°02'1111.1
2015-Jul-27 04:32N 31°54' E 123°02'1311.4
2015-Jul-27 03:25N 31°41' E 123°02'2312.0
2015-Jul-27 01:32N 31°18' E 123°02'1312.6
2015-Jul-27 00:31N 31°06' E 123°01'1312.9
2015-Jul-26 23:32N 30°53' E 123°01'1313.3
2015-Jul-26 22:32N 30°39' E 123°02'1313.3
2015-Jul-26 21:33N 30°26' E 123°02'1513.0
2015-Jul-26 20:22N 30°11' E 123°00'1012.4
2015-Jul-26 19:33N 30°01' E 122°57'1313.1
2015-Jul-26 18:33N 29°49' E 122°53'1312.8
2015-Jul-26 17:33N 29°36' E 122°50'1312.6
2015-Jul-26 16:33N 29°24' E 122°46'1713.0
2015-Jul-26 15:15N 29°08' E 122°39'28613.5
2015-Jul-25 18:07N 25°04' E 119°53'814.0
2015-Jul-25 17:33N 24°58' E 119°46'3414.2
2015-Jul-25 15:11N 24°37' E 119°18'913.7
2015-Jul-25 14:33N 24°31' E 119°11'5513.1
2015-Jul-25 10:23N 23°55' E 118°26'9413.6
2015-Jul-25 03:26N 22°57' E 117°05'14913.3
2015-Jul-24 16:11N 22°08' E 114°33'913.6
2015-Jul-24 15:33N 22°07' E 114°23'12 9.4
2015-Jul-24 14:19N 22°11' E 114°11'810.2
2015-Jul-24 13:34N 22°17' E 114°06'3 2.7
2015-Jul-24 12:18N 22°20' E 114°08'0 0.0
2015-Jul-24 11:33N 22°20' E 114°08'0 0.1
2015-Jul-24 10:33N 22°20' E 114°08'0 0.0
2015-Jul-24 09:33N 22°20' E 114°08'0 0.0
2015-Jul-24 08:33N 22°20' E 114°08'0 0.0
2015-Jul-24 07:24N 22°20' E 114°08'0 0.1
2015-Jul-24 06:33N 22°20' E 114°08'0 0.0
2015-Jul-24 05:33N 22°20' E 114°08'0 0.1
2015-Jul-24 04:33N 22°20' E 114°07'13 9.2
2015-Jul-24 03:08N 22°09' E 114°14'814.1
2015-Jul-24 02:33N 22°09' E 114°23'9 8.7
2015-Jul-24 01:33N 22°00' E 114°21'  
Track history (hours):
 
Tides and Currents Weather Stations Pressure Air Temp Water Temp Dewpoint Dewpoint Depression Visibility Wind Speed Wind Dir Waves Ship Positions

Deva

Last reported at 2015-Jul-31 12:19 UTC. Time now 2015-Aug-01 03:29 UTC.
Position N 36°38' E 122°31'.

Length 259 m; draft 9.3 m.

Type: Ship (hazmat cat A). MMSI: 636013644.

Date/timePositionNaut miles runAvg speedWind from/ knotsBaromVisibWave heightAir tempDewpointWater temp
2015-Jul-31 12:19N 36°38' E 122°31'911.4
2015-Jul-31 11:32N 36°43' E 122°40'1111.2
2015-Jul-31 10:33N 36°48' E 122°52'1110.6
2015-Jul-31 09:31N 36°58' E 122°58'1211.3
2015-Jul-31 08:30N 37°09' E 122°58'1311.0
2015-Jul-31 07:21N 37°22' E 122°59'2411.5
2015-Jul-31 05:15N 37°43' E 122°44'6312.4
2015-Jul-31 00:11N 38°38' E 122°06'1211.9
2015-Jul-30 23:11N 38°48' E 121°58'710.8
2015-Jul-30 22:33N 38°55' E 121°56'3 0.2
2015-Jul-30 10:26N 38°58' E 121°56'7 7.7
2015-Jul-30 09:33N 38°51' E 121°55'2019.7
2015-Jul-30 08:33N 38°34' E 121°43'2120.5
2015-Jul-30 07:33N 38°30' E 121°18'15514.1
2015-Jul-29 20:32N 38°56' E 118°02'1211.9
2015-Jul-29 19:33N 38°58' E 117°47'1 0.8
2015-Jul-29 18:33N 38°59' E 117°46'0 0.0
2015-Jul-29 17:33N 38°59' E 117°46'0 0.0
2015-Jul-29 16:33N 38°59' E 117°46'0 0.0
2015-Jul-29 15:26N 38°59' E 117°46'0 0.0
2015-Jul-29 14:20N 38°59' E 117°46'0 0.0
2015-Jul-29 13:14N 38°59' E 117°46'0 0.0
2015-Jul-29 12:32N 38°59' E 117°46'0 0.0
2015-Jul-29 11:26N 38°59' E 117°46'0 0.0
2015-Jul-29 10:32N 38°59' E 117°46'0 0.0
2015-Jul-29 09:26N 38°59' E 117°46'0 0.0
2015-Jul-29 08:32N 38°59' E 117°46'0 0.0
2015-Jul-29 07:20N 38°59' E 117°46'16310.1
2015-Jul-28 15:16N 38°29' E 121°12'2111.8
2015-Jul-28 13:31N 38°19' E 121°35'9612.0
2015-Jul-28 05:31N 37°13' E 123°03'21712.8
2015-Jul-27 12:31N 33°36' E 123°06'6913.3
2015-Jul-27 07:21N 32°27' E 123°03'1112.6
2015-Jul-27 06:29N 32°16' E 123°02'1111.6
2015-Jul-27 05:33N 32°05' E 123°02'1111.1
2015-Jul-27 04:32N 31°54' E 123°02'1311.4
2015-Jul-27 03:25N 31°41' E 123°02'2312.0
2015-Jul-27 01:32N 31°18' E 123°02'1312.6
2015-Jul-27 00:31N 31°06' E 123°01'1312.9
2015-Jul-26 23:32N 30°53' E 123°01'1313.3
2015-Jul-26 22:32N 30°39' E 123°02'1313.3
2015-Jul-26 21:33N 30°26' E 123°02'1513.0
2015-Jul-26 20:22N 30°11' E 123°00'1012.4
2015-Jul-26 19:33N 30°01' E 122°57'1313.1
2015-Jul-26 18:33N 29°49' E 122°53'1312.8
2015-Jul-26 17:33N 29°36' E 122°50'1312.6
2015-Jul-26 16:33N 29°24' E 122°46'1713.0
2015-Jul-26 15:15N 29°08' E 122°39'28613.5
2015-Jul-25 18:07N 25°04' E 119°53'814.0
2015-Jul-25 17:33N 24°58' E 119°46'3414.2
2015-Jul-25 15:11N 24°37' E 119°18'913.7
2015-Jul-25 14:33N 24°31' E 119°11'5513.1
2015-Jul-25 10:23N 23°55' E 118°26'9413.6
2015-Jul-25 03:26N 22°57' E 117°05'14913.3
2015-Jul-24 16:11N 22°08' E 114°33'913.6
2015-Jul-24 15:33N 22°07' E 114°23'12 9.4
2015-Jul-24 14:19N 22°11' E 114°11'810.2
2015-Jul-24 13:34N 22°17' E 114°06'3 2.7
2015-Jul-24 12:18N 22°20' E 114°08'0 0.0
2015-Jul-24 11:33N 22°20' E 114°08'0 0.1
2015-Jul-24 10:33N 22°20' E 114°08'0 0.0
2015-Jul-24 09:33N 22°20' E 114°08'0 0.0
2015-Jul-24 08:33N 22°20' E 114°08'0 0.0
2015-Jul-24 07:24N 22°20' E 114°08'0 0.1
2015-Jul-24 06:33N 22°20' E 114°08'0 0.0
2015-Jul-24 05:33N 22°20' E 114°08'0 0.1
2015-Jul-24 04:33N 22°20' E 114°07'13 9.2
2015-Jul-24 03:08N 22°09' E 114°14'814.1
2015-Jul-24 02:33N 22°09' E 114°23'9 8.7
2015-Jul-24 01:33N 22°00' E 114°21'  

Dump ship's entire track history